createdAt,value
2018-01-17T00:00:34.353Z,76.90
2018-01-17T00:03:01.890Z,76.90
2018-01-17T00:05:29.408Z,77.30
2018-01-17T00:07:56.944Z,77.40
2018-01-17T00:10:25.217Z,77.60
2018-01-17T00:12:52.762Z,77.60
2018-01-17T00:15:20.296Z,77.50
2018-01-17T00:17:48.640Z,77.40
2018-01-17T00:20:16.194Z,77.30
2018-01-17T00:22:44.492Z,77.40
2018-01-17T00:25:12.019Z,77.40
2018-01-17T00:27:39.551Z,77.20
2018-01-17T00:30:07.925Z,77.00
2018-01-17T00:32:35.463Z,77.20
2018-01-17T00:35:03.770Z,77.00
2018-01-17T00:37:31.293Z,77.00
2018-01-17T00:39:58.859Z,77.00
2018-01-17T00:42:27.155Z,76.60
2018-01-17T00:44:54.711Z,76.60
2018-01-17T00:47:23.180Z,76.10
2018-01-17T00:49:50.694Z,76.10
2018-01-17T00:52:19.001Z,75.50
2018-01-17T00:54:47.332Z,75.40
2018-01-17T00:57:14.864Z,75.40
2018-01-17T00:59:42.398Z,75.90
2018-01-17T01:02:09.925Z,75.60
2018-01-17T01:04:37.508Z,75.90
2018-01-17T01:07:05.142Z,75.80
2018-01-17T01:09:32.629Z,75.80
2018-01-17T01:12:00.304Z,75.40
2018-01-17T01:14:27.908Z,75.90
2018-01-17T01:16:55.466Z,75.90
2018-01-17T01:19:23.808Z,76.10
2018-01-17T01:21:51.314Z,76.10
2018-01-17T01:24:18.829Z,76.10
2018-01-17T01:26:47.122Z,75.70
2018-01-17T01:29:14.681Z,75.70
2018-01-17T01:31:42.258Z,76.10
2018-01-17T01:34:09.793Z,76.30
2018-01-17T01:36:38.066Z,76.10
2018-01-17T01:39:05.578Z,76.10
2018-01-17T01:41:33.884Z,76.10
2018-01-17T01:44:01.412Z,76.00
2018-01-17T01:46:28.928Z,76.30
2018-01-17T01:49:01.442Z,76.10
2018-01-17T01:51:29.727Z,76.50
2018-01-17T01:53:57.256Z,76.50
2018-01-17T01:56:25.572Z,76.10
2018-01-17T01:58:53.106Z,76.80
2018-01-17T02:01:21.375Z,76.00
2018-01-17T02:03:49.028Z,75.90
2018-01-17T02:06:16.578Z,76.00
2018-01-17T02:08:44.874Z,76.80
2018-01-17T02:11:12.402Z,76.40
2018-01-17T02:13:39.937Z,76.30
2018-01-17T02:16:07.464Z,76.20
2018-01-17T02:18:35.545Z,75.60
2018-01-17T02:21:03.109Z,75.70
2018-01-17T02:23:31.454Z,75.60
2018-01-17T02:25:59.058Z,76.20
2018-01-17T02:28:26.562Z,75.60
2018-01-17T02:30:54.149Z,75.30
2018-01-17T02:33:21.743Z,75.60
2018-01-17T02:35:49.396Z,75.50
2018-01-17T02:38:16.950Z,75.80
2018-01-17T02:40:44.466Z,76.10
2018-01-17T02:43:11.998Z,76.40
2018-01-17T02:45:40.317Z,75.90
2018-01-17T02:48:07.903Z,75.80
2018-01-17T02:50:35.430Z,75.80
2018-01-17T02:53:02.963Z,75.40
2018-01-17T02:55:30.479Z,75.60
2018-01-17T02:57:58.031Z,75.80
2018-01-17T03:00:25.545Z,75.00
2018-01-17T03:02:53.076Z,74.90
2018-01-17T03:05:20.617Z,74.60
2018-01-17T03:07:48.323Z,74.40
2018-01-17T03:10:15.870Z,74.50
2018-01-17T03:12:43.388Z,74.40
2018-01-17T03:15:10.998Z,74.50
2018-01-17T03:17:38.550Z,74.50
2018-01-17T03:20:06.100Z,74.60
2018-01-17T03:22:33.730Z,74.10
2018-01-17T03:25:01.239Z,74.20
2018-01-17T03:27:29.565Z,74.10
2018-01-17T03:29:57.141Z,74.10
2018-01-17T03:32:24.661Z,73.90
2018-01-17T03:34:52.277Z,73.90
2018-01-17T03:37:19.881Z,74.10
2018-01-17T03:39:47.389Z,73.70
2018-01-17T03:42:14.930Z,73.30
2018-01-17T03:44:42.467Z,72.90
2018-01-17T03:47:10.017Z,72.90
2018-01-17T03:49:37.578Z,72.90
2018-01-17T03:52:05.143Z,72.60
2018-01-17T03:54:33.696Z,72.00
2018-01-17T03:57:01.288Z,71.40
2018-01-17T03:59:29.558Z,70.60
2018-01-17T04:01:57.108Z,70.70
2018-01-17T04:04:24.645Z,70.60
2018-01-17T04:06:52.950Z,71.10
2018-01-17T04:09:20.549Z,71.20
2018-01-17T04:11:48.097Z,71.30
2018-01-17T04:14:15.602Z,71.10
2018-01-17T04:16:43.900Z,71.10
2018-01-17T04:19:11.407Z,71.10
2018-01-17T04:21:39.681Z,70.70
2018-01-17T04:24:07.288Z,70.70
2018-01-17T04:26:35.583Z,70.70
2018-01-17T04:29:03.861Z,71.10
2018-01-17T04:31:31.387Z,71.10
2018-01-17T04:33:58.924Z,71.20
2018-01-17T04:36:26.500Z,71.10
2018-01-17T04:38:54.023Z,71.40
2018-01-17T04:41:22.311Z,71.40
2018-01-17T04:43:49.855Z,71.40
2018-01-17T04:46:17.379Z,71.40
2018-01-17T04:48:45.653Z,71.30
2018-01-17T04:51:13.235Z,71.40
2018-01-17T04:53:40.749Z,71.40
2018-01-17T04:56:08.308Z,71.40
2018-01-17T04:58:35.822Z,71.90
2018-01-17T05:01:04.104Z,72.60
2018-01-17T05:03:31.670Z,72.70
2018-01-17T05:05:59.236Z,72.70
2018-01-17T05:08:26.772Z,72.30
2018-01-17T05:10:54.326Z,71.90
2018-01-17T05:13:21.867Z,72.00
2018-01-17T05:15:49.383Z,71.80
2018-01-17T05:18:16.901Z,71.40
2018-01-17T05:20:44.496Z,71.10
2018-01-17T05:23:12.824Z,70.80
2018-01-17T05:25:40.378Z,70.80
2018-01-17T05:28:07.898Z,69.80
2018-01-17T05:30:35.474Z,69.30
2018-01-17T05:33:03.017Z,69.30
2018-01-17T05:35:30.539Z,69.50
2018-01-17T05:37:58.073Z,69.60
2018-01-17T05:40:25.600Z,69.00
2018-01-17T05:42:53.186Z,68.70
2018-01-17T05:45:21.474Z,68.70
2018-01-17T05:47:49.768Z,68.90
2018-01-17T05:50:18.166Z,68.50
2018-01-17T05:52:45.717Z,68.60
2018-01-17T05:55:13.242Z,68.70
2018-01-17T05:57:41.556Z,68.70
2018-01-17T06:00:09.836Z,68.40
2018-01-17T06:02:37.404Z,68.40
2018-01-17T06:05:04.938Z,68.30
2018-01-17T06:07:32.463Z,68.30
2018-01-17T06:10:00.099Z,68.30
2018-01-17T06:12:27.654Z,68.00
2018-01-17T06:14:55.184Z,68.30
2018-01-17T06:17:22.745Z,68.20
2018-01-17T06:19:51.044Z,68.60
2018-01-17T06:22:19.338Z,68.30
2018-01-17T06:24:47.647Z,68.60
2018-01-17T06:27:15.940Z,68.50
2018-01-17T06:29:44.213Z,68.30
2018-01-17T06:32:11.750Z,68.00
2018-01-17T06:34:39.272Z,68.60
2018-01-17T06:37:06.844Z,69.60
2018-01-17T06:39:34.611Z,70.80
2018-01-17T06:42:02.188Z,71.70
2018-01-17T06:44:29.746Z,71.70
2018-01-17T06:46:57.348Z,71.40
2018-01-17T06:49:26.522Z,72.00
2018-01-17T06:51:54.214Z,72.00
2018-01-17T06:54:21.749Z,71.60
2018-01-17T06:56:49.324Z,71.40
2018-01-17T06:59:17.741Z,71.90
2018-01-17T07:01:45.315Z,71.90
2018-01-17T07:04:12.902Z,72.20
2018-01-17T07:06:40.454Z,75.50
2018-01-17T07:09:08.013Z,78.10
2018-01-17T07:11:35.526Z,80.50
2018-01-17T07:14:03.210Z,82.40
2018-01-17T07:16:30.778Z,83.40
2018-01-17T07:18:58.317Z,84.10
2018-01-17T07:21:26.604Z,84.60
2018-01-17T07:23:54.997Z,84.80
2018-01-17T07:26:23.318Z,84.10
2018-01-17T07:28:50.880Z,84.10
2018-01-17T07:31:19.285Z,82.90
2018-01-17T07:33:46.933Z,82.90
2018-01-17T07:36:14.555Z,82.50
2018-01-17T07:38:42.916Z,81.90
2018-01-17T07:41:10.482Z,81.90
2018-01-17T07:43:38.017Z,81.40
2018-01-17T07:46:05.588Z,81.00
2018-01-17T07:48:33.164Z,80.60
2018-01-17T07:51:00.713Z,80.40
2018-01-17T07:53:28.463Z,80.90
2018-01-17T07:55:56.004Z,80.30
2018-01-17T07:58:23.554Z,80.10
2018-01-17T08:00:51.108Z,80.10
2018-01-17T08:03:19.701Z,79.90
2018-01-17T08:05:47.290Z,80.00
2018-01-17T08:08:14.941Z,80.10
2018-01-17T08:10:43.329Z,80.10
2018-01-17T08:13:10.895Z,80.10
2018-01-17T08:15:39.242Z,79.80
2018-01-17T08:18:06.821Z,79.80
2018-01-17T08:20:34.432Z,79.80
2018-01-17T08:23:01.930Z,79.40
2018-01-17T08:25:29.598Z,79.40
2018-01-17T08:27:57.128Z,79.00
2018-01-17T08:30:25.632Z,78.80
2018-01-17T08:32:54.019Z,78.50
2018-01-17T08:35:21.946Z,78.60
2018-01-17T08:37:49.654Z,78.70
2018-01-17T08:40:17.202Z,78.30
2018-01-17T08:42:44.776Z,78.20
2018-01-17T08:45:12.336Z,77.90
2018-01-17T08:47:39.878Z,77.80
2018-01-17T08:50:08.185Z,78.10
2018-01-17T08:52:35.738Z,78.10
2018-01-17T08:55:03.485Z,78.00
2018-01-17T08:57:31.351Z,77.70
2018-01-17T08:59:59.675Z,76.40
2018-01-17T09:02:27.298Z,76.30
2018-01-17T09:04:54.814Z,76.00
2018-01-17T09:07:22.389Z,75.60
2018-01-17T09:09:49.937Z,75.60
2018-01-17T09:12:17.927Z,75.30
2018-01-17T09:14:45.654Z,75.60
2018-01-17T09:17:13.182Z,75.90
2018-01-17T09:19:40.775Z,76.00
2018-01-17T09:22:08.367Z,75.10
2018-01-17T09:24:36.048Z,74.40
2018-01-17T09:27:03.623Z,74.40
2018-01-17T09:29:31.150Z,74.20
2018-01-17T09:31:58.666Z,72.60
2018-01-17T09:34:26.986Z,70.50
2018-01-17T09:36:54.545Z,70.50
2018-01-17T09:39:22.864Z,71.40
2018-01-17T09:41:51.181Z,70.20
2018-01-17T09:44:18.852Z,70.20
2018-01-17T09:46:46.399Z,70.30
2018-01-17T09:49:13.951Z,69.20
2018-01-17T09:51:41.586Z,68.40
2018-01-17T09:54:09.137Z,67.40
2018-01-17T09:56:36.730Z,68.00
2018-01-17T09:59:04.294Z,67.40
2018-01-17T10:01:31.844Z,67.10
2018-01-17T10:04:00.182Z,67.10
2018-01-17T10:06:27.873Z,67.20
2018-01-17T10:08:55.483Z,67.60
2018-01-17T10:11:23.117Z,67.70
2018-01-17T10:13:50.816Z,68.20
2018-01-17T10:16:18.487Z,68.00
2018-01-17T10:18:46.034Z,66.20
2018-01-17T10:21:13.573Z,66.10
2018-01-17T10:23:41.236Z,65.00
2018-01-17T10:26:09.510Z,60.80
2018-01-17T10:28:37.036Z,60.80
2018-01-17T10:31:05.569Z,61.20
2018-01-17T10:33:33.114Z,58.20
2018-01-17T10:36:02.432Z,58.70
2018-01-17T10:38:30.036Z,58.80
2018-01-17T10:40:58.318Z,56.90
2018-01-17T10:43:26.300Z,57.00
2018-01-17T10:45:53.914Z,56.80
2018-01-17T10:48:21.618Z,56.40
2018-01-17T10:50:50.030Z,55.40
2018-01-17T10:53:18.428Z,55.80
2018-01-17T10:55:46.748Z,56.50
2018-01-17T10:58:14.309Z,56.50
2018-01-17T11:00:46.789Z,56.70
2018-01-17T11:03:14.371Z,55.80
2018-01-17T11:05:41.983Z,57.10
2018-01-17T11:08:09.581Z,58.00
2018-01-17T11:10:37.892Z,58.00
2018-01-17T11:13:06.181Z,58.20
2018-01-17T11:15:34.577Z,59.20
2018-01-17T11:18:02.114Z,59.10
2018-01-17T11:20:29.695Z,58.50
2018-01-17T11:22:57.231Z,59.40
2018-01-17T11:25:24.904Z,59.20
2018-01-17T11:27:52.471Z,58.00
2018-01-17T11:30:20.040Z,58.90
2018-01-17T11:32:47.619Z,58.60
2018-01-17T11:35:15.195Z,59.30
2018-01-17T11:37:42.702Z,59.50
2018-01-17T11:40:11.048Z,59.00
2018-01-17T11:42:38.577Z,59.00
2018-01-17T11:45:06.881Z,59.40
2018-01-17T11:47:35.371Z,60.60
2018-01-17T11:50:02.910Z,60.70
2018-01-17T11:52:30.548Z,62.50
2018-01-17T11:54:58.146Z,64.80
2018-01-17T11:57:25.812Z,71.00
2018-01-17T11:59:54.110Z,75.70
2018-01-17T12:02:21.692Z,76.40
2018-01-17T12:04:49.233Z,74.40
2018-01-17T12:07:16.814Z,75.20
2018-01-17T12:09:45.104Z,78.00
2018-01-17T12:12:12.902Z,78.00
2018-01-17T12:14:40.592Z,79.10
2018-01-17T12:17:08.194Z,79.40
2018-01-17T12:19:35.828Z,79.00
2018-01-17T12:22:03.368Z,78.70
2018-01-17T12:24:30.956Z,78.50
2018-01-17T12:26:59.287Z,77.50
2018-01-17T12:29:26.819Z,77.40
2018-01-17T12:31:54.630Z,76.50
2018-01-17T12:34:22.251Z,75.20
2018-01-17T12:36:49.827Z,74.70
2018-01-17T12:39:17.398Z,74.00
2018-01-17T12:41:44.992Z,72.80
2018-01-17T12:44:12.572Z,72.40
2018-01-17T12:46:40.148Z,72.90
2018-01-17T12:49:07.760Z,72.60
2018-01-17T12:51:35.344Z,72.00
2018-01-17T12:54:02.903Z,72.40
2018-01-17T12:56:30.582Z,72.60
2018-01-17T12:58:58.110Z,73.20
2018-01-17T13:01:25.674Z,73.30
2018-01-17T13:03:53.299Z,72.90
2018-01-17T13:06:21.624Z,71.70
2018-01-17T13:08:49.195Z,71.70
2018-01-17T13:11:17.564Z,70.10
2018-01-17T13:13:45.344Z,70.40
2018-01-17T13:16:12.978Z,70.20
2018-01-17T13:18:40.524Z,69.80
2018-01-17T13:21:08.211Z,69.50
2018-01-17T13:23:35.735Z,69.20
2018-01-17T13:26:04.045Z,68.90
2018-01-17T13:28:31.638Z,69.00
2018-01-17T13:30:59.236Z,69.50
2018-01-17T13:33:26.815Z,70.10
2018-01-17T13:35:56.086Z,69.90
2018-01-17T13:38:23.637Z,69.60
2018-01-17T13:40:51.254Z,69.70
2018-01-17T13:43:18.912Z,70.10
2018-01-17T13:45:46.505Z,70.70
2018-01-17T13:48:14.044Z,70.60
2018-01-17T13:50:41.629Z,72.00
2018-01-17T13:53:09.968Z,74.30
2018-01-17T13:55:37.580Z,74.30
2018-01-17T13:58:05.107Z,74.40
2018-01-17T14:00:32.645Z,74.50
2018-01-17T14:03:00.238Z,74.30
2018-01-17T14:05:28.005Z,74.10
2018-01-17T14:07:55.588Z,73.90
2018-01-17T14:10:23.220Z,73.70
2018-01-17T14:12:51.508Z,72.00
2018-01-17T14:15:19.039Z,71.90
2018-01-17T14:17:46.637Z,71.10
2018-01-17T14:20:14.176Z,70.80
2018-01-17T14:22:42.471Z,70.70
2018-01-17T14:25:10.908Z,69.90
2018-01-17T14:27:38.434Z,69.90
2018-01-17T14:30:06.016Z,69.20
2018-01-17T14:32:33.669Z,68.90
2018-01-17T14:35:01.286Z,70.20
2018-01-17T14:37:28.844Z,71.90
2018-01-17T14:39:56.358Z,74.70
2018-01-17T14:42:23.977Z,75.80
2018-01-17T14:44:51.681Z,76.30
2018-01-17T14:47:19.318Z,76.20
2018-01-17T14:52:44.967Z,73.60
2018-01-17T14:55:12.523Z,73.60
2018-01-17T14:57:41.049Z,73.80
2018-01-17T15:00:15.072Z,71.90
2018-01-17T15:02:43.380Z,71.10
2018-01-17T15:05:11.703Z,71.80
2018-01-17T15:07:40.117Z,71.20
2018-01-17T15:10:07.664Z,71.30
2018-01-17T15:12:42.340Z,71.40
2018-01-17T15:17:44.276Z,70.40
2018-01-17T15:20:11.948Z,70.70
2018-01-17T15:22:40.490Z,71.30
2018-01-17T15:25:08.789Z,72.30
2018-01-17T15:27:37.255Z,71.90
2018-01-17T15:30:04.940Z,71.90
2018-01-17T15:32:32.583Z,72.00
2018-01-17T15:35:00.124Z,70.50
2018-01-17T15:37:28.621Z,69.70
2018-01-17T15:39:56.320Z,69.40
2018-01-17T15:42:23.980Z,69.50
2018-01-17T15:44:51.548Z,68.40
2018-01-17T15:47:19.348Z,67.70
2018-01-17T15:49:47.164Z,67.40
2018-01-17T15:52:14.833Z,67.60
2018-01-17T15:54:42.374Z,67.70
2018-01-17T15:57:09.901Z,67.30
2018-01-17T15:59:37.608Z,67.60
2018-01-17T16:02:06.177Z,67.70
2018-01-17T16:04:33.842Z,67.40
2018-01-17T16:07:01.421Z,66.60
2018-01-17T16:09:29.138Z,66.90
2018-01-17T16:11:56.796Z,66.70
2018-01-17T16:14:24.343Z,66.70
2018-01-17T16:16:51.997Z,67.10
2018-01-17T16:19:19.676Z,66.70
2018-01-17T16:21:47.334Z,67.20
2018-01-17T16:24:15.628Z,67.20
2018-01-17T16:26:43.262Z,67.20
2018-01-17T16:29:10.878Z,67.20
2018-01-17T16:31:38.511Z,67.40
2018-01-17T16:34:06.197Z,67.90
2018-01-17T16:36:34.532Z,68.50
2018-01-17T16:39:02.178Z,68.60
2018-01-17T16:41:30.498Z,69.40
2018-01-17T16:43:58.160Z,69.40
2018-01-17T16:46:25.703Z,69.40
2018-01-17T16:48:54.209Z,72.10
2018-01-17T16:51:21.728Z,72.00
2018-01-17T16:53:49.381Z,73.80
2018-01-17T16:56:16.989Z,74.80
2018-01-17T16:58:44.627Z,75.30
2018-01-17T17:01:13.020Z,75.50
2018-01-17T17:03:41.449Z,75.40
2018-01-17T17:06:09.156Z,75.50
2018-01-17T17:08:36.844Z,74.80
2018-01-17T17:11:04.403Z,74.60
2018-01-17T17:13:32.085Z,74.30
2018-01-17T17:16:00.391Z,73.50
2018-01-17T17:18:28.131Z,73.50
2018-01-17T17:20:55.815Z,73.50
2018-01-17T17:23:23.505Z,72.90
2018-01-17T17:25:51.034Z,72.30
2018-01-17T17:28:18.850Z,71.80
2018-01-17T17:30:46.528Z,71.50
2018-01-17T17:33:14.115Z,71.20
2018-01-17T17:35:42.658Z,71.10
2018-01-17T17:38:10.266Z,71.10
2018-01-17T17:40:38.694Z,71.10
2018-01-17T17:43:07.141Z,70.30
2018-01-17T17:45:34.817Z,70.30
2018-01-17T17:48:02.499Z,70.60
2018-01-17T17:50:30.056Z,70.50
2018-01-17T17:52:58.540Z,70.10
2018-01-17T17:55:27.113Z,70.20
2018-01-17T17:57:54.638Z,70.20
2018-01-17T18:00:22.358Z,69.90
2018-01-17T18:02:49.876Z,69.10
2018-01-17T18:05:17.746Z,69.40
2018-01-17T18:07:45.300Z,69.10
2018-01-17T18:10:12.852Z,69.20
2018-01-17T18:12:41.204Z,69.70
2018-01-17T18:15:08.965Z,69.60
2018-01-17T18:17:36.596Z,68.90
2018-01-17T18:20:04.213Z,68.50
2018-01-17T18:22:32.606Z,74.70
2018-01-17T18:25:00.220Z,74.60
2018-01-17T18:27:27.940Z,76.90
2018-01-17T18:29:55.548Z,78.30
2018-01-17T18:32:23.092Z,78.80
2018-01-17T18:34:50.685Z,78.70
2018-01-17T18:37:18.990Z,77.40
2018-01-17T18:39:46.803Z,77.40
2018-01-17T18:42:14.557Z,77.30
2018-01-17T18:44:42.341Z,75.70
2018-01-17T18:47:09.926Z,74.40
2018-01-17T18:49:37.576Z,75.20
2018-01-17T18:52:05.161Z,76.00
2018-01-17T18:54:32.717Z,74.90
2018-01-17T18:57:00.244Z,75.60
2018-01-17T18:59:27.798Z,75.40
2018-01-17T19:01:56.574Z,74.70
2018-01-17T19:04:24.905Z,74.80
2018-01-17T19:06:53.357Z,74.90
2018-01-17T19:09:22.104Z,76.10
2018-01-17T19:11:49.681Z,76.10
2018-01-17T19:14:17.976Z,79.80
2018-01-17T19:16:45.667Z,79.90
2018-01-17T19:19:13.983Z,80.20
2018-01-17T19:21:42.298Z,80.70
2018-01-17T19:24:09.867Z,80.70
2018-01-17T19:26:37.479Z,80.40
2018-01-17T19:29:05.150Z,80.30
2018-01-17T19:31:33.476Z,81.00
2018-01-17T19:34:01.810Z,81.40
2018-01-17T19:36:29.461Z,81.40
2018-01-17T19:38:57.046Z,81.30
2018-01-17T19:41:25.332Z,80.80
2018-01-17T19:43:53.687Z,80.70
2018-01-17T19:46:21.253Z,80.80
2018-01-17T19:48:48.771Z,80.50
2018-01-17T19:51:16.319Z,80.60
2018-01-17T19:53:43.871Z,81.10
2018-01-17T19:56:12.175Z,81.90
2018-01-17T19:58:40.524Z,82.20
2018-01-17T20:01:08.098Z,82.20
2018-01-17T20:03:35.658Z,82.30
2018-01-17T20:06:03.961Z,82.20
2018-01-17T20:08:31.548Z,82.20
2018-01-17T20:10:59.094Z,82.20
2018-01-17T20:13:26.653Z,81.70
2018-01-17T20:15:54.318Z,81.40
2018-01-17T20:18:21.867Z,80.70
2018-01-17T20:20:50.159Z,80.40
2018-01-17T20:23:18.548Z,80.00
2018-01-17T20:25:46.077Z,79.90
2018-01-17T20:28:13.639Z,79.80
2018-01-17T20:30:41.959Z,80.70
2018-01-17T20:33:09.558Z,80.70
2018-01-17T20:35:37.082Z,81.40
2018-01-17T20:38:04.696Z,81.30
2018-01-17T20:40:32.256Z,81.50
2018-01-17T20:42:59.806Z,81.60
2018-01-17T20:45:27.330Z,81.50
2018-01-17T20:47:54.945Z,80.90
2018-01-17T20:50:22.480Z,80.30
2018-01-17T20:52:50.052Z,79.60
2018-01-17T20:55:17.689Z,79.60
2018-01-17T20:57:46.017Z,78.50
2018-01-17T21:00:13.555Z,78.50
2018-01-17T21:02:41.091Z,77.80
2018-01-17T21:05:09.437Z,77.00
2018-01-17T21:07:36.989Z,77.10
2018-01-17T21:10:04.524Z,76.90
2018-01-17T21:12:32.802Z,77.30
2018-01-17T21:15:00.372Z,77.40
2018-01-17T21:17:27.908Z,76.80
2018-01-17T21:19:56.185Z,76.20
2018-01-17T21:22:23.749Z,76.20
2018-01-17T21:24:51.286Z,76.90
2018-01-17T21:27:18.801Z,76.10
2018-01-17T21:29:46.349Z,76.50
2018-01-17T21:32:14.726Z,76.60
2018-01-17T21:34:42.271Z,76.70
2018-01-17T21:37:09.818Z,76.30
2018-01-17T21:39:37.357Z,76.80
2018-01-17T21:42:04.880Z,77.30
2018-01-17T21:44:38.015Z,77.60
2018-01-17T21:47:05.562Z,78.30
2018-01-17T21:49:33.116Z,78.30
2018-01-17T21:52:01.505Z,78.30
2018-01-17T21:54:29.074Z,78.30
2018-01-17T21:56:56.578Z,78.00
2018-01-17T21:59:24.132Z,78.00
2018-01-17T22:01:51.652Z,78.30
2018-01-17T22:04:19.951Z,78.60
2018-01-17T22:06:47.477Z,78.60
2018-01-17T22:09:15.024Z,78.70
2018-01-17T22:11:42.566Z,78.50
2018-01-17T22:14:10.165Z,78.80
2018-01-17T22:16:37.687Z,78.30
2018-01-17T22:19:05.469Z,78.10
2018-01-17T22:21:33.010Z,78.20
2018-01-17T22:24:00.541Z,78.50
2018-01-17T22:26:28.073Z,79.10
2018-01-17T22:28:56.390Z,79.40
2018-01-17T22:31:23.910Z,79.40
2018-01-17T22:33:51.441Z,78.90
2018-01-17T22:36:19.077Z,78.50
2018-01-17T22:38:46.616Z,77.90
2018-01-17T22:41:14.155Z,77.50
2018-01-17T22:43:41.689Z,77.20
2018-01-17T22:46:09.230Z,77.00
2018-01-17T22:48:36.800Z,76.70
2018-01-17T22:51:04.329Z,76.50
2018-01-17T22:53:31.892Z,76.20
2018-01-17T22:55:59.466Z,76.70
2018-01-17T22:58:27.030Z,76.30
2018-01-17T23:00:54.777Z,75.60
2018-01-17T23:03:22.334Z,75.50
2018-01-17T23:05:50.650Z,75.50
2018-01-17T23:08:18.991Z,75.00
2018-01-17T23:10:46.540Z,75.00
2018-01-17T23:13:14.876Z,75.20
2018-01-17T23:15:43.323Z,74.90
2018-01-17T23:18:10.882Z,74.90
2018-01-17T23:20:38.509Z,74.40
2018-01-17T23:23:06.087Z,74.90
2018-01-17T23:25:33.625Z,75.00
2018-01-17T23:28:01.275Z,74.70
2018-01-17T23:30:29.586Z,74.90
2018-01-17T23:32:57.900Z,74.60
2018-01-17T23:35:26.181Z,74.20
2018-01-17T23:37:54.579Z,73.90
2018-01-17T23:40:22.123Z,74.00
2018-01-17T23:42:49.709Z,74.00
2018-01-17T23:45:17.270Z,74.30
2018-01-17T23:47:44.949Z,74.60
2018-01-17T23:50:12.496Z,74.60
2018-01-17T23:52:40.034Z,75.40
2018-01-17T23:55:07.605Z,74.30
2018-01-17T23:57:35.126Z,73.70
